עמוד ראשי
METAR-TAF:

METAR-TAF

שדות תעופה :

פוארטו באריוס, גואטמלה

קו רוחב: 15-43N, קו אורך: 088-36W, גובה: 1מטר

תצפית מזג אוויר נוכחית

הדו"ח נערך לפני 16דקות, בשעה 08:00 UTC
רוח רגועה
טמפרטורת 29 צלסיוס
לחות 94%
לחץ 1008 hPa
ראות: 7000מטר
עננים פזורים בגובה 1800רגל
עננים בינוניים בגובה 8000רגל
אד,

METAR: MGPB 260800Z 00000KT 7000 SCT018 BKN080 29/28 Q1008 A2977 BR

זמן: 02:16 (08:16 UTC)

תחזית

הדו"ח נערך לפני 3 שעות ו 16דקות, בשעה 05:00 UTC
תחזית בתוקף מ 26 ב 06 UTC עד 27 ב 06 UTC
רוח קשר מכיוון צפון
ראות: 6000מטר
עננים פזורים בגובה 1800רגל
יעשה מ
26 ב 14 UTC עד 26 ב 16 UTC
רוח 6קשר מכיוון מזרח/צפון-מזרח
מעט עננים בגובה 1800רגל
יעשה מ
26 ב 18 UTC עד 26 ב 20 UTC
מעט עננים בגובה 2500רגל
יעשה מ
27 ב 00 UTC עד 27 ב 02 UTC
רוח קשר מכיוון צפון
מעט עננים בגובה 1800רגל

TAF: MGPB 260500Z 2606/2706 00000KT 6000 SCT018 TX36/2620Z TN26/2612Z BECMG 2614/2616 06006KT FEW018 BECMG 2618/2620 FEW025 BECMG 2700/2702 00000KT FEW018

תצפיות ותחזיות מזג אוויר לגבי יותר מ- 4,000 שדות תעופה ברחבי העולם. דוחות METAR ו- TAF.

התחנות הזמינות מסומנות בנקודות צהובות ואדומות על גבי המפה.

העבר את העכבר לנקודה הצבעונית על מנת לראות את שם התחנה.

לאחר מכן, לחץ כדי לראות את תוכן ואת תחזיות מזג האוויר.

כדי לשנות את המפה: לחץ על הכפתורים הירוקים עם הפלוס השחור כדי להתקרב; על הכפתור הירוק עם המקף כדי להתרחק; או בחיצים הירוקים למפות סמוכות.


METAR-TAF: